Time;durP1;ratioP1;P1;durP2;ratioP2;P2;SDS_P1;SDS_P2;PMS_P1;PMS_P2;Temp;Humidity;BMP_temperature;BMP_pressure;BME280_temperature;BME280_humidity;BME280_pressure;Samples;Min_cycle;Max_cycle;Signal;HPM_P1;HPM_P2
2022/01/13 00:00:37;;;;;;;31.88;10.55;;;4.70;93.50;;;;;;5111473;28;20100;-69
2022/01/13 00:03:03;;;;;;;23.75;8.88;;;4.80;93.50;;;;;;5129370;27;20050;-70
2022/01/13 00:05:30;;;;;;;15.38;8.50;;;4.80;93.40;;;;;;5124812;27;20089;-69
2022/01/13 00:07:57;;;;;;;16.10;8.95;;;4.80;93.40;;;;;;5112884;27;20058;-69
2022/01/13 00:10:25;;;;;;;21.30;8.90;;;4.80;93.40;;;;;;5094098;28;20053;-69
2022/01/13 00:13:07;;;;;;;18.08;9.98;;;4.80;93.40;;;;;;5113052;28;20087;-69
2022/01/13 00:18:13;;;;;;;19.98;10.73;;;4.80;93.30;;;;;;5111917;27;20430;-69
2022/01/13 00:21:00;;;;;;;19.63;9.43;;;4.80;93.30;;;;;;5094641;28;20055;-69
2022/01/13 00:23:41;;;;;;;19.55;9.30;;;4.80;93.20;;;;;;5111474;28;20051;-69
2022/01/13 00:26:14;;;;;;;23.33;10.40;;;4.80;93.30;;;;;;5114124;27;20039;-69
2022/01/13 00:28:43;;;;;;;25.83;10.15;;;4.80;93.30;;;;;;5132992;27;20082;-69
2022/01/13 00:31:08;;;;;;;28.20;10.23;;;4.70;93.40;;;;;;5132635;27;20043;-69
2022/01/13 00:33:34;;;;;;;22.85;9.63;;;4.70;93.30;;;;;;5133329;27;20047;-69
2022/01/13 00:36:00;;;;;;;20.50;10.05;;;4.70;93.50;;;;;;5132378;27;20403;-69
2022/01/13 00:38:30;;;;;;;17.45;10.23;;;4.70;93.40;;;;;;5132617;27;20039;-69
2022/01/13 00:40:57;;;;;;;16.40;10.68;;;4.70;93.30;;;;;;5132500;27;20051;-69
2022/01/13 00:43:22;;;;;;;30.50;11.93;;;4.70;93.40;;;;;;5133005;27;20040;-69
2022/01/13 00:45:49;;;;;;;18.92;10.13;;;4.70;93.40;;;;;;5133041;27;20046;-69
2022/01/13 00:48:15;;;;;;;18.30;9.55;;;4.70;93.40;;;;;;5133023;27;20503;-69
2022/01/13 00:50:41;;;;;;;20.02;10.10;;;4.80;93.40;;;;;;5132499;27;20082;-69
2022/01/13 00:53:06;;;;;;;23.88;11.10;;;4.80;93.30;;;;;;5114295;27;20487;-69
2022/01/13 00:58:10;;;;;;;28.02;10.82;;;4.90;93.30;;;;;;5132754;27;20054;-69
2022/01/13 01:00:36;;;;;;;27.83;11.27;;;4.90;93.40;;;;;;5130134;27;20035;-69
2022/01/13 01:03:03;;;;;;;25.90;12.07;;;4.90;93.50;;;;;;5132819;27;20113;-69
2022/01/13 01:05:29;;;;;;;24.63;12.43;;;4.90;93.50;;;;;;5132339;27;20047;-69
2022/01/13 01:07:54;;;;;;;23.58;11.95;;;5.00;93.50;;;;;;5113597;27;20046;-69
2022/01/13 01:10:21;;;;;;;22.60;11.35;;;4.90;93.50;;;;;;5115471;27;20854;-69
2022/01/13 01:12:46;;;;;;;27.50;10.55;;;5.00;93.50;;;;;;5076974;28;20130;-69
2022/01/13 01:15:12;;;;;;;31.95;10.50;;;4.90;93.50;;;;;;5120275;27;20110;-69
2022/01/13 01:17:44;;;;;;;22.75;10.32;;;5.00;93.40;;;;;;5132490;27;20410;-69
2022/01/13 01:20:11;;;;;;;21.48;10.35;;;4.90;93.50;;;;;;5131270;27;20051;-69
2022/01/13 01:22:43;;;;;;;22.30;11.57;;;4.90;93.50;;;;;;5113461;27;20531;-69
2022/01/13 01:27:41;;;;;;;21.48;10.98;;;4.90;93.50;;;;;;5132136;27;20144;-69
2022/01/13 01:30:14;;;;;;;29.05;10.55;;;5.00;93.50;;;;;;5130411;27;20121;-69
2022/01/13 01:32:40;;;;;;;20.45;10.80;;;5.00;93.50;;;;;;5132100;27;20043;-69
2022/01/13 01:35:14;;;;;;;21.83;11.00;;;4.90;93.40;;;;;;5113670;27;20051;-69
2022/01/13 01:37:40;;;;;;;18.65;9.88;;;5.00;93.40;;;;;;5131794;27;20046;-69
2022/01/13 01:40:08;;;;;;;23.10;10.32;;;5.00;93.40;;;;;;5113163;27;20039;-69
2022/01/13 01:42:33;;;;;;;24.10;10.60;;;5.00;93.30;;;;;;5131580;27;20039;-69
2022/01/13 01:45:00;;;;;;;25.40;10.50;;;5.00;93.30;;;;;;5131299;27;20054;-69
2022/01/13 01:47:30;;;;;;;17.60;10.05;;;5.00;93.30;;;;;;5096435;27;20099;-70
2022/01/13 01:50:11;;;;;;;24.38;10.15;;;5.00;93.30;;;;;;5130359;27;20035;-69
2022/01/13 01:52:38;;;;;;;24.00;10.55;;;5.00;93.30;;;;;;5112800;27;20405;-69
2022/01/13 01:55:05;;;;;;;30.10;9.27;;;5.00;93.20;;;;;;5130943;27;20050;-70
2022/01/13 01:57:31;;;;;;;18.00;9.38;;;4.90;93.20;;;;;;5131390;27;20047;-69
2022/01/13 01:59:57;;;;;;;28.85;8.73;;;4.90;93.20;;;;;;5128456;27;20250;-70
2022/01/13 02:02:24;;;;;;;25.17;9.40;;;5.00;93.30;;;;;;5131609;27;20517;-69
2022/01/13 02:04:50;;;;;;;46.42;9.77;;;5.00;93.20;;;;;;5109708;28;20373;-70
2022/01/13 02:07:16;;;;;;;20.73;8.45;;;4.90;93.20;;;;;;5092617;28;20059;-69
2022/01/13 02:09:44;;;;;;;17.95;9.18;;;4.90;93.20;;;;;;5101823;27;20046;-70
2022/01/13 02:12:18;;;;;;;28.70;9.55;;;4.90;93.30;;;;;;5131500;27;20549;-69
2022/01/13 02:14:58;;;;;;;34.15;8.77;;;4.90;93.30;;;;;;5131241;27;20589;-69
2022/01/13 02:17:27;;;;;;;24.23;9.00;;;4.90;93.30;;;;;;5095722;27;20047;-70
2022/01/13 02:19:55;;;;;;;32.47;8.93;;;4.90;93.20;;;;;;5095019;27;20054;-70
2022/01/13 02:22:22;;;;;;;45.38;8.88;;;4.90;93.10;;;;;;5130943;27;20043;-70
2022/01/13 02:24:48;;;;;;;35.08;7.97;;;4.90;93.40;;;;;;5131230;27;20079;-70
2022/01/13 02:27:14;;;;;;;52.78;8.80;;;4.90;93.30;;;;;;5129382;27;20040;-70
2022/01/13 02:29:40;;;;;;;33.72;8.50;;;4.90;93.30;;;;;;5130440;27;20162;-69
2022/01/13 02:32:06;;;;;;;37.50;8.90;;;5.00;93.40;;;;;;5112237;27;20133;-69
2022/01/13 02:34:33;;;;;;;42.20;10.18;;;4.90;93.30;;;;;;5131016;27;20039;-69
2022/01/13 02:36:59;;;;;;;37.03;9.93;;;4.90;93.30;;;;;;5126015;27;20454;-70
2022/01/13 02:39:27;;;;;;;28.42;9.50;;;5.00;93.40;;;;;;5109707;27;20043;-70
2022/01/13 02:41:53;;;;;;;46.40;9.93;;;5.00;93.40;;;;;;5130923;27;20050;-69
2022/01/13 02:44:22;;;;;;;39.03;10.52;;;5.00;93.40;;;;;;5130927;27;20039;-69
2022/01/13 02:49:15;;;;;;;56.20;12.60;;;5.00;93.60;;;;;;5129941;27;20130;-70
2022/01/13 02:51:42;;;;;;;29.15;10.88;;;5.00;93.90;;;;;;5129811;27;20308;-70
2022/01/13 02:54:09;;;;;;;46.90;12.35;;;5.00;94.00;;;;;;5130088;27;20405;-70
2022/01/13 02:56:36;;;;;;;37.65;10.05;;;5.00;93.80;;;;;;5129484;27;20043;-69
2022/01/13 02:59:02;;;;;;;52.38;11.40;;;5.00;93.90;;;;;;5130534;27;20039;-70
2022/01/13 03:01:28;;;;;;;46.95;10.63;;;5.00;93.80;;;;;;5112150;27;20411;-70
2022/01/13 03:03:53;;;;;;;56.30;10.43;;;5.10;93.80;;;;;;5130432;27;20122;-69
2022/01/13 03:06:24;;;;;;;39.72;10.32;;;5.00;93.90;;;;;;5119223;27;20511;-70
2022/01/13 03:08:51;;;;;;;31.48;9.90;;;5.00;93.90;;;;;;5108836;27;20097;-69
2022/01/13 03:11:18;;;;;;;39.72;11.73;;;5.00;93.90;;;;;;5129594;27;20082;-69
2022/01/13 03:13:44;;;;;;;40.45;11.18;;;5.10;94.10;;;;;;5130393;27;20058;-69
2022/01/13 03:16:13;;;;;;;31.90;11.23;;;5.00;94.10;;;;;;5129366;27;20122;-65
2022/01/13 03:18:39;;;;;;;40.30;12.80;;;5.10;94.10;;;;;;5129387;27;20035;-69
2022/01/13 03:21:06;;;;;;;42.85;13.15;;;5.00;94.10;;;;;;5110150;28;20054;-70
2022/01/13 03:23:33;;;;;;;43.17;12.43;;;5.00;94.20;;;;;;5109862;28;20071;-70
2022/01/13 03:25:59;;;;;;;43.92;11.80;;;5.10;94.20;;;;;;5110586;28;20123;-70
2022/01/13 03:28:37;;;;;;;44.42;11.95;;;5.10;94.30;;;;;;5129487;28;20130;-70
2022/01/13 03:31:04;;;;;;;45.13;11.75;;;5.10;94.30;;;;;;5130269;28;20049;-70
2022/01/13 03:33:29;;;;;;;63.20;13.38;;;5.10;94.40;;;;;;5111279;28;20567;-69
2022/01/13 03:35:56;;;;;;;49.63;13.40;;;5.10;94.30;;;;;;5129900;28;20103;-70
2022/01/13 03:38:22;;;;;;;35.03;12.10;;;5.10;94.40;;;;;;5129939;27;20051;-70
2022/01/13 03:40:48;;;;;;;42.17;12.85;;;5.10;94.40;;;;;;5134449;27;20031;-70
2022/01/13 03:43:16;;;;;;;64.22;11.93;;;5.10;94.50;;;;;;5134323;27;20587;-70
2022/01/13 03:45:42;;;;;;;44.63;12.70;;;5.10;94.50;;;;;;5134209;27;20047;-70
2022/01/13 03:48:09;;;;;;;40.05;12.02;;;5.10;94.50;;;;;;5132817;27;20051;-70
2022/01/13 03:50:35;;;;;;;52.55;12.43;;;5.20;94.50;;;;;;5115810;27;20314;-70
2022/01/13 03:53:01;;;;;;;55.17;13.40;;;5.20;94.50;;;;;;5134375;27;20043;-69
2022/01/13 03:55:36;;;;;;;58.75;12.77;;;5.20;94.50;;;;;;5115541;27;20054;-69
2022/01/13 03:58:39;;;;;;;55.60;12.68;;;5.20;94.60;;;;;;5132559;27;20577;-69
2022/01/13 04:01:43;;;;;;;48.28;12.23;;;5.20;94.70;;;;;;5133494;27;20039;-69
2022/01/13 04:04:08;;;;;;;30.73;11.45;;;5.20;94.60;;;;;;5134092;27;20082;-70
2022/01/13 04:06:42;;;;;;;82.10;13.95;;;5.20;94.60;;;;;;5118102;27;20242;-70
2022/01/13 04:09:32;;;;;;;54.72;13.00;;;5.20;94.50;;;;;;5132371;27;20396;-70
2022/01/13 04:12:03;;;;;;;48.38;13.90;;;5.20;94.50;;;;;;5097917;27;20209;-70
2022/01/13 04:14:37;;;;;;;67.43;14.15;;;5.20;94.60;;;;;;5133853;27;20051;-70
2022/01/13 04:17:03;;;;;;;37.25;11.90;;;5.30;94.50;;;;;;5133073;27;20043;-70
2022/01/13 04:19:28;;;;;;;44.20;13.10;;;5.30;94.50;;;;;;5133281;27;20050;-69
2022/01/13 04:21:54;;;;;;;77.00;14.82;;;5.30;94.50;;;;;;5133292;27;20419;-70
2022/01/13 04:24:20;;;;;;;27.60;12.52;;;5.30;94.50;;;;;;5133382;27;20043;-70
2022/01/13 04:26:46;;;;;;;30.75;13.45;;;5.30;94.50;;;;;;5132861;27;20050;-70
2022/01/13 04:31:39;;;;;;;47.05;14.00;;;5.40;94.60;;;;;;5132296;27;20047;-71
2022/01/13 04:34:04;;;;;;;62.92;15.85;;;5.40;94.70;;;;;;5097818;27;20058;-70
2022/01/13 04:36:31;;;;;;;41.30;13.77;;;5.40;94.70;;;;;;5132173;27;20031;-71
2022/01/13 04:38:56;;;;;;;47.42;15.48;;;5.40;94.70;;;;;;5133072;27;20047;-70
2022/01/13 04:41:32;;;;;;;42.17;14.15;;;5.40;94.60;;;;;;5133262;27;20043;-70
2022/01/13 04:43:58;;;;;;;40.92;15.20;;;5.40;94.70;;;;;;5132200;27;20100;-70
2022/01/13 04:46:24;;;;;;;38.00;14.70;;;5.40;94.70;;;;;;5131452;27;20046;-70
2022/01/13 04:48:50;;;;;;;67.43;16.30;;;5.50;94.70;;;;;;5132836;27;20031;-70
2022/01/13 04:51:16;;;;;;;55.10;14.85;;;5.50;94.80;;;;;;5131313;27;20115;-71
2022/01/13 04:53:42;;;;;;;44.35;14.32;;;5.50;94.80;;;;;;5132766;27;20070;-71
2022/01/13 04:56:14;;;;;;;47.25;15.32;;;5.50;94.80;;;;;;5131622;27;20043;-70
2022/01/13 04:58:40;;;;;;;48.42;15.40;;;5.60;94.80;;;;;;5132131;27;20108;-70
2022/01/13 05:01:06;;;;;;;38.22;14.82;;;5.60;94.70;;;;;;5132475;27;20047;-70
2022/01/13 05:03:31;;;;;;;44.50;15.43;;;5.60;94.80;;;;;;5131052;27;20464;-70
2022/01/13 05:05:57;;;;;;;45.70;15.27;;;5.60;94.70;;;;;;5106939;27;20403;-70
2022/01/13 05:08:23;;;;;;;60.13;16.52;;;5.60;94.70;;;;;;5113478;27;20672;-70
2022/01/13 05:10:48;;;;;;;48.08;15.88;;;5.60;94.70;;;;;;5131683;27;20062;-70
2022/01/13 05:13:14;;;;;;;39.58;15.30;;;5.70;94.70;;;;;;5132245;27;20048;-70
2022/01/13 05:15:42;;;;;;;36.63;14.57;;;5.60;94.80;;;;;;5130570;27;20047;-70
2022/01/13 05:18:19;;;;;;;50.60;17.08;;;5.70;94.80;;;;;;5132353;27;20516;-70
2022/01/13 05:20:48;;;;;;;48.63;16.35;;;5.70;94.70;;;;;;5132318;27;20053;-70
2022/01/13 05:23:15;;;;;;;43.17;16.35;;;5.80;94.70;;;;;;5132157;27;20122;-70
2022/01/13 05:25:43;;;;;;;47.33;17.55;;;5.70;94.80;;;;;;5131356;27;20031;-70
2022/01/13 05:28:09;;;;;;;51.25;17.05;;;5.70;94.80;;;;;;5128956;27;20069;-70
2022/01/13 05:30:34;;;;;;;47.92;15.68;;;5.80;94.80;;;;;;5130979;27;20046;-70
2022/01/13 05:33:00;;;;;;;50.22;16.60;;;5.90;94.80;;;;;;5118206;27;20047;-70
2022/01/13 05:35:26;;;;;;;62.35;17.95;;;5.90;94.80;;;;;;5131987;27;20035;-70
2022/01/13 05:37:52;;;;;;;46.67;17.88;;;5.90;94.70;;;;;;5112007;27;20063;-70
2022/01/13 05:40:18;;;;;;;55.08;18.40;;;5.90;94.80;;;;;;5113770;27;20047;-70
2022/01/13 05:42:44;;;;;;;64.93;19.17;;;5.90;94.80;;;;;;5131953;27;20054;-70
2022/01/13 05:45:16;;;;;;;63.97;19.88;;;6.00;94.80;;;;;;5130565;27;20039;-70
2022/01/13 05:47:43;;;;;;;55.50;19.45;;;6.00;94.70;;;;;;5131155;27;20047;-70
2022/01/13 05:50:13;;;;;;;56.33;19.45;;;6.00;94.70;;;;;;5122712;27;20039;-70
2022/01/13 05:52:39;;;;;;;55.13;19.80;;;6.00;94.70;;;;;;5131588;27;20039;-70
2022/01/13 05:55:06;;;;;;;56.35;20.55;;;6.10;94.70;;;;;;5112833;27;20042;-70
2022/01/13 05:57:31;;;;;;;43.65;19.17;;;6.10;94.70;;;;;;5130540;27;20058;-70
2022/01/13 05:59:57;;;;;;;55.50;20.33;;;6.10;94.70;;;;;;5130788;27;20396;-71
2022/01/13 06:02:22;;;;;;;52.75;21.73;;;6.10;94.70;;;;;;5112698;27;20043;-70
2022/01/13 06:04:48;;;;;;;55.72;21.50;;;6.20;94.70;;;;;;5130995;27;20119;-70
2022/01/13 06:07:14;;;;;;;57.35;21.42;;;6.20;94.70;;;;;;5094785;27;20039;-70
2022/01/13 06:09:40;;;;;;;54.13;21.38;;;6.20;94.80;;;;;;5129256;27;20077;-70
2022/01/13 06:12:06;;;;;;;59.75;21.98;;;6.20;94.80;;;;;;5130683;27;20035;-70
2022/01/13 06:14:31;;;;;;;62.67;21.65;;;6.30;94.70;;;;;;5130617;27;20039;-70
2022/01/13 06:16:57;;;;;;;67.88;24.17;;;6.30;94.70;;;;;;5129106;27;20042;-71
2022/01/13 06:19:23;;;;;;;66.22;22.05;;;6.30;94.70;;;;;;5131016;27;21093;-70
2022/01/13 06:21:48;;;;;;;58.38;22.48;;;6.30;94.70;;;;;;5129856;27;20126;-69
2022/01/13 06:24:14;;;;;;;62.95;20.23;;;6.40;94.70;;;;;;5095089;27;20035;-69
2022/01/13 06:26:40;;;;;;;62.40;20.00;;;6.50;94.70;;;;;;5130336;27;20039;-69
2022/01/13 06:29:05;;;;;;;69.22;21.33;;;6.40;94.70;;;;;;5130291;27;20104;-69
2022/01/13 06:31:31;;;;;;;67.07;20.55;;;6.40;94.70;;;;;;5127528;27;20039;-70
2022/01/13 06:33:57;;;;;;;59.63;20.35;;;6.50;94.60;;;;;;5123630;27;20100;-70
2022/01/13 06:36:22;;;;;;;59.15;21.60;;;6.40;94.50;;;;;;5107611;27;20100;-69
2022/01/13 06:38:50;;;;;;;60.55;21.13;;;6.40;94.60;;;;;;5129896;27;20039;-71
2022/01/13 06:41:17;;;;;;;71.70;21.30;;;6.40;94.50;;;;;;5130685;27;20054;-70
2022/01/13 06:43:43;;;;;;;62.65;20.67;;;6.30;94.50;;;;;;5130253;27;20039;-69
2022/01/13 06:46:11;;;;;;;62.53;20.88;;;6.30;94.50;;;;;;5128906;27;20079;-70
2022/01/13 06:48:37;;;;;;;62.15;21.30;;;6.30;94.50;;;;;;5126097;27;20123;-69
2022/01/13 06:51:03;;;;;;;53.28;20.35;;;6.30;94.50;;;;;;5119353;27;20126;-69
2022/01/13 06:53:29;;;;;;;60.70;21.40;;;6.30;94.50;;;;;;5120064;27;20071;-68
2022/01/13 06:55:55;;;;;;;65.68;22.27;;;6.30;94.50;;;;;;5129121;27;20474;-69
2022/01/13 06:58:20;;;;;;;52.03;20.23;;;6.30;94.40;;;;;;5111734;27;20035;-68
2022/01/13 07:00:46;;;;;;;69.47;22.08;;;6.30;94.50;;;;;;5129252;27;20039;-66
2022/01/13 07:03:12;;;;;;;53.90;20.38;;;6.30;94.40;;;;;;5127705;27;20065;-67
2022/01/13 07:05:37;;;;;;;63.40;21.40;;;6.30;94.40;;;;;;5127335;27;20046;-67
2022/01/13 07:08:03;;;;;;;52.05;20.58;;;6.30;94.30;;;;;;5115993;27;20100;-68
2022/01/13 07:10:29;;;;;;;55.25;20.88;;;6.30;94.40;;;;;;5091953;27;20107;-68
2022/01/13 07:12:55;;;;;;;47.47;20.90;;;6.30;94.40;;;;;;5113108;27;20044;-67
2022/01/13 07:15:21;;;;;;;49.35;21.42;;;6.40;94.40;;;;;;5117358;27;20040;-68
2022/01/13 07:17:47;;;;;;;58.10;19.73;;;6.30;94.40;;;;;;5129029;27;20837;-68
2022/01/13 07:20:13;;;;;;;60.47;20.02;;;6.40;94.40;;;;;;5112031;28;20042;-70
2022/01/13 07:22:39;;;;;;;45.42;19.75;;;6.30;94.40;;;;;;5129458;27;20069;-69
2022/01/13 07:25:09;;;;;;;56.30;20.23;;;6.30;94.50;;;;;;5129169;27;20035;-69
2022/01/13 07:27:34;;;;;;;56.72;20.58;;;6.40;94.50;;;;;;5130150;27;20088;-69
2022/01/13 07:30:00;;;;;;;47.38;20.73;;;6.40;94.40;;;;;;5129821;28;21909;-69
2022/01/13 07:32:26;;;;;;;49.83;20.80;;;6.40;94.40;;;;;;5129596;28;20404;-69
2022/01/13 07:34:52;;;;;;;48.63;19.15;;;6.40;94.30;;;;;;5127772;28;20053;-69
2022/01/13 07:37:18;;;;;;;49.00;21.77;;;6.40;94.40;;;;;;5127777;27;20100;-69
2022/01/13 07:39:43;;;;;;;48.25;19.75;;;6.40;94.40;;;;;;5129351;28;20043;-69
2022/01/13 07:42:09;;;;;;;53.38;20.80;;;6.40;94.40;;;;;;5129044;28;20499;-70
2022/01/13 07:44:35;;;;;;;44.75;19.75;;;6.50;94.40;;;;;;5125783;27;20118;-69
2022/01/13 07:47:01;;;;;;;51.85;23.10;;;6.50;94.40;;;;;;5127950;27;20040;-70
2022/01/13 07:49:27;;;;;;;54.35;20.90;;;6.50;94.30;;;;;;5128870;27;20840;-71
2022/01/13 07:51:53;;;;;;;50.80;20.55;;;6.50;94.30;;;;;;5122584;28;20122;-70
2022/01/13 07:54:19;;;;;;;42.70;18.63;;;6.50;94.20;;;;;;5128698;28;20122;-70
2022/01/13 07:56:44;;;;;;;48.75;19.15;;;6.50;94.20;;;;;;5127792;27;20112;-70
2022/01/13 07:59:10;;;;;;;45.40;20.08;;;6.50;94.20;;;;;;5119247;28;20096;-70
2022/01/13 08:01:35;;;;;;;47.70;20.75;;;6.80;94.30;;;;;;5117245;28;20092;-70
2022/01/13 08:04:01;;;;;;;43.03;20.52;;;6.80;94.20;;;;;;5125780;28;20031;-70
2022/01/13 08:06:27;;;;;;;49.38;21.15;;;6.90;94.20;;;;;;5128090;28;20047;-69
2022/01/13 08:08:52;;;;;;;37.25;18.65;;;6.80;93.90;;;;;;5118520;28;20736;-66
2022/01/13 08:11:18;;;;;;;45.92;19.38;;;6.80;93.90;;;;;;5107441;28;20105;-71
2022/01/13 08:13:44;;;;;;;46.00;19.05;;;6.70;93.90;;;;;;5124950;28;20446;-72
2022/01/13 08:16:11;;;;;;;44.65;20.13;;;6.70;93.80;;;;;;5102392;28;20122;-72
2022/01/13 08:21:23;;;;;;;42.22;19.98;;;6.70;93.80;;;;;;5112215;28;20095;-71
2022/01/13 08:23:50;;;;;;;41.08;18.90;;;6.60;93.80;;;;;;5128620;27;20491;-72
2022/01/13 08:26:16;;;;;;;42.95;18.88;;;6.60;93.80;;;;;;5133551;27;20046;-72
2022/01/13 08:28:42;;;;;;;39.35;18.92;;;6.60;93.70;;;;;;5132515;27;20484;-71
2022/01/13 08:31:08;;;;;;;38.80;17.80;;;6.60;93.70;;;;;;5131458;27;20039;-71
2022/01/13 08:33:33;;;;;;;47.78;18.55;;;6.60;93.70;;;;;;5132031;27;20824;-71
2022/01/13 08:35:59;;;;;;;49.30;22.08;;;6.60;93.70;;;;;;5114654;27;20679;-71
2022/01/13 08:38:25;;;;;;;40.70;17.50;;;6.60;93.80;;;;;;5132161;27;20058;-71
2022/01/13 08:40:57;;;;;;;43.20;18.70;;;6.60;93.80;;;;;;5096830;27;20039;-70
2022/01/13 08:43:24;;;;;;;45.40;18.95;;;6.50;93.80;;;;;;5133028;27;20054;-68
2022/01/13 08:45:50;;;;;;;44.28;18.90;;;6.60;93.90;;;;;;5132229;27;20122;-70
2022/01/13 08:48:16;;;;;;;43.13;19.38;;;6.70;93.80;;;;;;5106324;27;20078;-69
2022/01/13 08:50:42;;;;;;;38.15;19.92;;;6.70;93.80;;;;;;5115867;27;20039;-70
2022/01/13 08:53:08;;;;;;;41.15;19.73;;;6.70;93.80;;;;;;5123346;27;20242;-70
2022/01/13 08:55:34;;;;;;;41.50;19.13;;;6.70;93.80;;;;;;5108807;27;20511;-70
2022/01/13 08:57:59;;;;;;;49.10;19.42;;;6.70;93.60;;;;;;5113970;27;20095;-70
2022/01/13 09:00:26;;;;;;;42.17;19.52;;;6.60;93.70;;;;;;5131335;27;20051;-70
2022/01/13 09:02:51;;;;;;;40.28;19.35;;;6.70;93.80;;;;;;5118028;27;20118;-70
2022/01/13 09:05:19;;;;;;;46.63;21.48;;;6.70;93.70;;;;;;5122882;27;20119;-71
2022/01/13 09:07:45;;;;;;;43.35;19.88;;;6.60;93.80;;;;;;5111987;28;20100;-72
2022/01/13 09:10:12;;;;;;;47.83;22.67;;;6.60;93.90;;;;;;5112158;28;20055;-72
2022/01/13 09:12:38;;;;;;;48.72;19.67;;;6.70;93.90;;;;;;5129569;27;20102;-72
2022/01/13 09:15:50;;;;;;;45.92;21.27;;;6.70;93.90;;;;;;5096361;27;20444;-72
2022/01/13 09:17:54;;;;;;;46.22;20.88;;;6.70;93.90;;;;;;5123663;27;20103;-72
2022/01/13 09:20:20;;;;;;;37.13;21.05;;;6.80;94.10;;;;;;5128195;27;20065;-72
2022/01/13 09:22:47;;;;;;;41.83;22.35;;;6.70;94.00;;;;;;5112997;27;20095;-72
2022/01/13 09:25:12;;;;;;;47.75;24.75;;;6.70;94.10;;;;;;5126949;27;20047;-72
2022/01/13 09:27:40;;;;;;;54.40;23.92;;;6.70;94.20;;;;;;5130530;27;20100;-72
2022/01/13 09:30:08;;;;;;;44.00;24.65;;;6.80;94.30;;;;;;5090646;28;20043;-72
2022/01/13 09:32:35;;;;;;;44.55;23.63;;;6.80;94.30;;;;;;5127794;27;20047;-73
2022/01/13 09:35:01;;;;;;;52.15;28.48;;;6.70;94.20;;;;;;5125084;27;20541;-74
2022/01/13 09:37:27;;;;;;;51.25;24.77;;;6.80;94.20;;;;;;5128894;27;20036;-73
2022/01/13 09:39:53;;;;;;;53.50;24.88;;;6.80;94.40;;;;;;5130514;27;20524;-73
2022/01/13 09:42:19;;;;;;;42.13;21.92;;;6.90;94.30;;;;;;5126521;27;20064;-71
2022/01/13 09:44:46;;;;;;;47.97;22.33;;;6.90;94.20;;;;;;5131606;27;20054;-72
2022/01/13 09:47:13;;;;;;;48.03;24.20;;;7.30;94.80;;;;;;5128208;27;20039;-70
2022/01/13 09:49:39;;;;;;;52.22;23.33;;;7.60;93.90;;;;;;5130724;27;20039;-74
2022/01/13 09:52:04;;;;;;;46.28;21.95;;;7.80;93.40;;;;;;5130757;27;20542;-73
2022/01/13 09:54:30;;;;;;;51.75;21.80;;;7.80;93.00;;;;;;5131216;27;20520;-73
2022/01/13 09:56:56;;;;;;;36.72;20.10;;;7.70;92.50;;;;;;5113469;27;20039;-71
2022/01/13 09:59:21;;;;;;;43.47;22.58;;;7.60;92.70;;;;;;5111784;27;20511;-73
2022/01/13 10:01:47;;;;;;;54.75;22.88;;;7.60;92.90;;;;;;5130104;27;20051;-74
2022/01/13 10:04:13;;;;;;;39.17;21.25;;;7.50;92.70;;;;;;5112131;27;20039;-73
2022/01/13 10:06:47;;;;;;;39.20;22.02;;;7.50;92.90;;;;;;5113042;27;20047;-74
2022/01/13 10:09:13;;;;;;;43.40;22.13;;;7.40;92.90;;;;;;5123491;27;20043;-73
2022/01/13 10:11:44;;;;;;;53.85;20.50;;;7.40;93.30;;;;;;5129377;27;20125;-73
2022/01/13 10:14:12;;;;;;;44.00;20.87;;;7.40;93.20;;;;;;5118298;27;20043;-71
2022/01/13 10:16:49;;;;;;;37.47;21.00;;;7.30;93.30;;;;;;5130867;27;20500;-72
2022/01/13 10:19:42;;;;;;;44.33;19.42;;;7.40;93.40;;;;;;5130391;27;20083;-73
2022/01/13 10:22:09;;;;;;;38.15;20.55;;;7.30;93.40;;;;;;5130469;27;20411;-66
2022/01/13 10:24:39;;;;;;;39.83;19.98;;;7.30;93.40;;;;;;5130399;27;20038;-73
2022/01/13 10:27:07;;;;;;;39.60;19.90;;;7.30;93.30;;;;;;5112877;27;20050;-73
2022/01/13 10:29:45;;;;;;;50.00;22.63;;;7.30;93.40;;;;;;5129294;27;20042;-73
2022/01/13 10:32:20;;;;;;;40.85;21.52;;;7.20;93.40;;;;;;5087611;27;20087;-73
2022/01/13 10:34:48;;;;;;;50.65;23.02;;;7.30;93.40;;;;;;5129486;27;20091;-73
2022/01/13 10:37:16;;;;;;;42.88;22.77;;;7.20;93.40;;;;;;5128881;27;20039;-73
2022/01/13 10:39:54;;;;;;;48.60;22.40;;;7.30;93.40;;;;;;5128604;27;20043;-73
2022/01/13 10:43:06;;;;;;;42.42;22.80;;;7.20;93.40;;;;;;5128163;27;20043;-73
2022/01/13 10:45:45;;;;;;;43.25;22.10;;;7.20;93.50;;;;;;5127750;27;20111;-72
2022/01/13 10:48:17;;;;;;;39.38;22.77;;;7.20;93.50;;;;;;5090169;27;20058;-72
2022/01/13 10:50:47;;;;;;;48.85;21.67;;;7.20;93.40;;;;;;5121080;27;20108;-71
2022/01/13 10:53:26;;;;;;;37.45;22.75;;;7.20;93.70;;;;;;5112266;27;20039;-72
2022/01/13 10:55:56;;;;;;;50.75;25.50;;;7.20;93.60;;;;;;5127008;27;20036;-72
2022/01/13 10:58:32;;;;;;;33.70;21.10;;;7.20;93.60;;;;;;5125081;27;20088;-71
2022/01/13 11:00:59;;;;;;;61.03;24.98;;;7.20;93.60;;;;;;5128780;27;20126;-72
2022/01/13 11:03:27;;;;;;;40.75;21.40;;;7.20;93.50;;;;;;5126419;27;20035;-72
2022/01/13 11:06:05;;;;;;;46.78;21.58;;;7.20;93.50;;;;;;5107081;28;20039;-71
2022/01/13 11:08:38;;;;;;;44.67;22.70;;;7.20;93.60;;;;;;5120835;27;20039;-72
2022/01/13 11:11:04;;;;;;;44.28;23.70;;;7.20;93.50;;;;;;5126848;27;20047;-72
2022/01/13 11:13:36;;;;;;;36.95;21.58;;;7.30;93.50;;;;;;5129870;27;20050;-72
2022/01/13 11:16:02;;;;;;;38.00;20.75;;;7.30;93.50;;;;;;5127836;27;20082;-72
2022/01/13 11:18:31;;;;;;;37.97;20.33;;;7.20;93.40;;;;;;5105408;27;20099;-72
2022/01/13 11:20:58;;;;;;;46.35;22.00;;;7.20;93.60;;;;;;5108862;28;20051;-72
2022/01/13 11:23:25;;;;;;;49.25;22.25;;;7.20;93.60;;;;;;5129450;27;20043;-72
2022/01/13 11:25:54;;;;;;;41.08;21.42;;;7.20;93.50;;;;;;5125217;27;20036;-72
2022/01/13 11:28:20;;;;;;;41.95;21.67;;;7.30;93.60;;;;;;5091831;28;20031;-72
2022/01/13 11:30:49;;;;;;;42.80;22.70;;;7.30;93.70;;;;;;5127827;28;20061;-72
2022/01/13 11:33:15;;;;;;;46.17;21.38;;;7.30;93.70;;;;;;5128810;28;20103;-72
2022/01/13 11:35:45;;;;;;;39.78;21.60;;;7.30;93.80;;;;;;5130225;28;20556;-72
2022/01/13 11:38:13;;;;;;;45.33;21.85;;;7.30;93.80;;;;;;5129598;28;20075;-72
2022/01/13 11:40:45;;;;;;;47.08;22.88;;;7.40;93.90;;;;;;5122080;28;20073;-72
2022/01/13 11:43:28;;;;;;;51.55;22.83;;;7.40;93.80;;;;;;5114686;28;20088;-66
2022/01/13 11:45:54;;;;;;;53.42;25.00;;;7.50;93.90;;;;;;5106454;28;20047;-73
2022/01/13 11:48:24;;;;;;;47.15;21.27;;;7.60;93.80;;;;;;5117884;28;20484;-73
2022/01/13 11:50:54;;;;;;;47.53;22.60;;;7.70;93.80;;;;;;5129577;28;20035;-72
2022/01/13 11:53:21;;;;;;;52.97;22.52;;;7.70;93.40;;;;;;5110016;28;20047;-74
2022/01/13 11:55:55;;;;;;;43.17;20.08;;;7.70;93.50;;;;;;5129177;28;20035;-72
2022/01/13 11:58:25;;;;;;;40.15;20.13;;;7.80;93.50;;;;;;5123429;28;20055;-72
2022/01/13 12:00:52;;;;;;;44.05;20.48;;;7.80;93.40;;;;;;5127584;27;20042;-72
2022/01/13 12:03:28;;;;;;;40.47;19.50;;;7.90;93.40;;;;;;5103382;27;20048;-72
2022/01/13 12:05:56;;;;;;;47.72;23.00;;;7.90;93.20;;;;;;5097754;27;20042;-72
2022/01/13 12:08:44;;;;;;;37.95;16.67;;;7.90;93.00;;;;;;5134036;27;20039;-72
2022/01/13 12:11:39;;;;;;;35.53;16.33;;;7.90;92.70;;;;;;5133005;27;20108;-70
2022/01/13 12:14:25;;;;;;;38.42;18.25;;;8.00;92.80;;;;;;5133400;27;20051;-70
2022/01/13 12:16:52;;;;;;;34.50;17.60;;;8.10;92.60;;;;;;5117805;27;20055;-71
2022/01/13 12:19:44;;;;;;;40.22;17.02;;;8.10;92.50;;;;;;5113511;27;20047;-71
2022/01/13 12:22:37;;;;;;;35.92;16.20;;;8.10;92.50;;;;;;5122629;27;20047;-72
2022/01/13 12:25:06;;;;;;;29.73;16.73;;;8.10;92.50;;;;;;5130943;27;20126;-70
2022/01/13 12:27:45;;;;;;;29.23;15.13;;;8.30;92.70;;;;;;5096561;27;20047;-73
2022/01/13 12:30:21;;;;;;;35.00;15.40;;;8.60;92.10;;;;;;5114380;27;20035;-72
2022/01/13 12:33:09;;;;;;;28.08;15.18;;;8.60;91.70;;;;;;5132628;27;20035;-72
2022/01/13 12:35:34;;;;;;;26.70;14.13;;;8.40;91.50;;;;;;5096823;27;20055;-72
2022/01/13 12:38:16;;;;;;;30.77;14.55;;;8.40;91.50;;;;;;5133098;27;20055;-72
2022/01/13 12:40:52;;;;;;;48.30;16.35;;;8.40;91.40;;;;;;5132605;27;20054;-72
2022/01/13 12:43:36;;;;;;;33.70;15.55;;;8.30;91.60;;;;;;5133133;27;20081;-72
2022/01/13 12:46:01;;;;;;;36.95;15.38;;;8.20;91.80;;;;;;5121197;27;20039;-73
2022/01/13 12:48:31;;;;;;;38.65;14.75;;;8.30;91.70;;;;;;5132296;27;20074;-72
2022/01/13 12:50:58;;;;;;;31.92;15.00;;;8.30;91.90;;;;;;5113474;27;20050;-73
2022/01/13 12:53:27;;;;;;;30.77;14.70;;;8.20;91.60;;;;;;5132693;27;20046;-72
2022/01/13 12:55:57;;;;;;;31.02;13.25;;;8.20;91.50;;;;;;5112572;27;20046;-72
2022/01/13 12:58:26;;;;;;;28.15;13.48;;;8.20;91.50;;;;;;5114067;27;20503;-72
2022/01/13 13:00:55;;;;;;;35.28;15.02;;;8.20;91.50;;;;;;5132405;27;20036;-72